Time;durP1;ratioP1;P1;durP2;ratioP2;P2;SDS_P1;SDS_P2;PMS_P1;PMS_P2;Temp;Humidity;BMP_temperature;BMP_pressure;BME280_temperature;BME280_humidity;BME280_pressure;Samples;Min_cycle;Max_cycle;Signal;HPM_P1;HPM_P2
2023/08/26 00:00:52;;;;;;;6.10;4.70;;;;;;;20.83;86.23;99932.02;105617;1254;72864;-65
2023/08/26 00:03:33;;;;;;;6.20;4.50;;;;;;;20.82;86.59;99932.16;105575;1257;83684;-65
2023/08/26 00:06:00;;;;;;;7.60;4.90;;;;;;;20.81;86.87;99935.96;105668;1254;72681;-65
2023/08/26 00:08:26;;;;;;;7.50;5.00;;;;;;;20.82;86.94;99944.98;105617;1252;69128;-65
2023/08/26 00:10:53;;;;;;;6.90;4.70;;;;;;;20.82;87.28;99943.88;105591;1252;69174;-65
2023/08/26 00:13:20;;;;;;;8.20;4.30;;;;;;;20.83;87.43;99943.77;105677;1255;73533;-65
2023/08/26 00:15:47;;;;;;;7.20;4.50;;;;;;;20.84;87.58;99949.56;105580;1254;82362;-66
2023/08/26 00:18:14;;;;;;;5.70;4.40;;;;;;;20.83;87.63;99954.92;105572;1254;73641;-66
2023/08/26 00:20:41;;;;;;;6.10;4.10;;;;;;;20.79;87.46;99956.55;105530;1256;69118;-66
2023/08/26 00:23:08;;;;;;;7.30;4.20;;;;;;;20.73;87.41;99956.70;105526;1257;69169;-66
2023/08/26 00:25:35;;;;;;;6.20;4.30;;;;;;;20.70;87.67;99955.23;105668;1252;74637;-66
2023/08/26 00:28:03;;;;;;;5.80;4.10;;;;;;;20.62;87.39;99956.73;105595;1256;83175;-66
2023/08/26 00:30:30;;;;;;;8.90;4.40;;;;;;;20.55;87.70;99951.34;105588;1256;73684;-65
2023/08/26 00:32:56;;;;;;;7.40;4.40;;;;;;;20.53;88.04;99951.55;105581;1256;69276;-66
2023/08/26 00:35:24;;;;;;;9.20;4.10;;;;;;;20.48;88.04;99957.70;105596;1253;69107;-66
2023/08/26 00:37:51;;;;;;;6.30;3.90;;;;;;;20.43;88.16;99956.73;105553;1254;73845;-66
2023/08/26 00:40:18;;;;;;;7.30;4.40;;;;;;;20.40;88.51;99955.09;105569;1256;83336;-65
2023/08/26 00:42:45;;;;;;;6.60;3.80;;;;;;;20.37;88.69;99957.46;105440;1254;72723;-66
2023/08/26 00:45:13;;;;;;;7.00;4.20;;;;;;;20.31;88.60;99961.18;105551;1257;69189;-66
2023/08/26 00:47:41;;;;;;;7.30;3.90;;;;;;;20.23;88.85;99958.98;105617;1257;69110;-66
2023/08/26 00:50:09;;;;;;;5.90;3.50;;;;;;;20.18;88.82;99959.02;105462;1257;74799;-66
2023/08/26 00:52:37;;;;;;;7.00;4.30;;;;;;;20.11;88.88;99957.40;105600;1254;82467;-66
2023/08/26 00:55:04;;;;;;;4.70;3.80;;;;;;;20.05;88.93;99957.51;105607;1252;72511;-66
2023/08/26 00:57:31;;;;;;;4.20;3.60;;;;;;;19.98;89.06;99958.79;105565;1256;69183;-65
2023/08/26 00:59:59;;;;;;;5.60;4.10;;;;;;;19.95;89.49;99956.95;105581;1256;69147;-66
2023/08/26 01:02:26;;;;;;;7.10;4.00;;;;;;;19.91;89.33;99956.89;105559;1254;74606;-65
2023/08/26 01:04:54;;;;;;;6.30;4.00;;;;;;;19.84;89.35;99961.20;105498;1257;83079;-65
2023/08/26 01:07:20;;;;;;;7.20;4.00;;;;;;;19.78;89.54;99955.30;105499;1257;72602;-65
2023/08/26 01:09:47;;;;;;;7.40;4.40;;;;;;;19.73;89.68;99957.14;105564;1254;69114;-65
2023/08/26 01:12:27;;;;;;;8.80;4.30;;;;;;;19.68;89.86;99963.58;105573;1257;69180;-65
2023/08/26 01:15:02;;;;;;;4.60;4.00;;;;;;;19.66;90.58;99965.15;105640;1254;75046;-66
2023/08/26 01:17:29;;;;;;;6.20;4.80;;;;;;;19.64;90.53;99967.81;105645;1256;83255;-65
2023/08/26 01:19:57;;;;;;;6.40;4.40;;;;;;;19.61;90.93;99961.77;105497;1255;73703;-66
2023/08/26 01:22:26;;;;;;;5.10;4.50;;;;;;;19.57;90.79;99954.65;105557;1254;69185;-65
2023/08/26 01:24:54;;;;;;;6.60;4.00;;;;;;;19.53;90.65;99959.43;105591;1257;69198;-65
2023/08/26 01:27:21;;;;;;;6.20;4.10;;;;;;;19.49;90.89;99957.15;105594;1254;73805;-65
2023/08/26 01:29:48;;;;;;;6.70;4.70;;;;;;;19.44;90.67;99957.54;105582;1257;83396;-65
2023/08/26 01:32:22;;;;;;;7.70;4.40;;;;;;;19.37;90.88;99951.52;105484;1257;73656;-65
2023/08/26 01:34:53;;;;;;;5.00;4.50;;;;;;;19.33;90.87;99947.27;105598;1256;69395;-65
2023/08/26 01:37:20;;;;;;;6.50;4.50;;;;;;;19.25;90.90;99947.02;105570;1254;69170;-65
2023/08/26 01:39:49;;;;;;;7.60;4.70;;;;;;;19.19;91.01;99944.52;105450;1256;74856;-65
2023/08/26 01:42:18;;;;;;;6.60;4.70;;;;;;;19.13;91.28;99938.23;105591;1256;83350;-65
2023/08/26 01:44:46;;;;;;;5.80;4.00;;;;;;;19.10;91.58;99936.02;105662;1254;72538;-65
2023/08/26 01:47:13;;;;;;;7.90;5.10;;;;;;;19.06;91.64;99939.83;105606;1254;69148;-65
2023/08/26 01:49:40;;;;;;;6.80;4.70;;;;;;;19.02;91.92;99940.58;105469;1253;69249;-64
2023/08/26 01:52:08;;;;;;;6.70;4.40;;;;;;;19.00;92.11;99942.13;105604;1254;73753;-64
2023/08/26 01:54:35;;;;;;;6.70;4.60;;;;;;;18.98;92.29;99942.05;105583;1256;82290;-64
2023/08/26 01:57:04;;;;;;;6.80;4.80;;;;;;;18.97;92.51;99941.15;105604;1257;72561;-64
2023/08/26 01:59:31;;;;;;;7.60;5.00;;;;;;;18.93;92.63;99938.40;105652;1254;69253;-64
2023/08/26 02:01:58;;;;;;;6.80;4.60;;;;;;;18.93;92.96;99934.29;105623;1254;69156;-65
2023/08/26 02:04:25;;;;;;;9.50;5.10;;;;;;;18.88;92.48;99933.34;105534;1254;73677;-65
2023/08/26 02:06:52;;;;;;;6.40;4.50;;;;;;;18.82;92.54;99929.92;105585;1255;83469;-65
2023/08/26 02:09:19;;;;;;;11.20;5.00;;;;;;;18.78;92.49;99925.08;105430;1257;73628;-65
2023/08/26 02:11:46;;;;;;;7.30;4.80;;;;;;;18.72;92.42;99927.24;105517;1256;69192;-65
2023/08/26 02:14:13;;;;;;;6.60;4.00;;;;;;;18.69;92.68;99928.77;105542;1256;69147;-65
2023/08/26 02:16:40;;;;;;;6.60;4.80;;;;;;;18.67;92.89;99926.45;105544;1254;73716;-65
2023/08/26 02:19:06;;;;;;;6.10;4.20;;;;;;;18.66;93.19;99926.87;105542;1254;83243;-65
2023/08/26 02:21:33;;;;;;;6.90;4.70;;;;;;;18.65;93.22;99927.84;105436;1255;72652;-65
2023/08/26 02:24:01;;;;;;;6.90;5.30;;;;;;;18.64;93.39;99927.91;105581;1254;69144;-65
2023/08/26 02:26:28;;;;;;;10.00;5.20;;;;;;;18.62;93.73;99923.27;105650;1256;69202;-65
2023/08/26 02:28:55;;;;;;;6.90;5.10;;;;;;;18.62;93.83;99922.42;105542;1254;74810;-65
2023/08/26 02:31:22;;;;;;;6.60;4.50;;;;;;;18.59;93.78;99922.09;105568;1256;83106;-65
2023/08/26 02:33:49;;;;;;;5.00;4.30;;;;;;;18.57;93.85;99923.16;105561;1252;73186;-65
2023/08/26 02:36:16;;;;;;;6.40;4.80;;;;;;;18.55;94.19;99923.85;105532;1255;69198;-64
2023/08/26 02:38:43;;;;;;;6.90;5.00;;;;;;;18.54;94.31;99926.55;105589;1256;69119;-65
2023/08/26 02:41:10;;;;;;;6.40;5.10;;;;;;;18.53;94.36;99925.47;105620;1254;75511;-65
2023/08/26 02:43:37;;;;;;;6.70;5.20;;;;;;;18.52;94.86;99927.09;105625;1256;83165;-65
2023/08/26 02:46:05;;;;;;;8.30;5.00;;;;;;;18.55;95.20;99925.98;105644;1254;72609;-64
2023/08/26 02:48:32;;;;;;;11.60;5.60;;;;;;;18.56;95.40;99919.70;105567;1256;69170;-65
2023/08/26 02:51:00;;;;;;;6.00;4.90;;;;;;;18.58;95.61;99919.39;105478;1257;69234;-65
2023/08/26 02:53:29;;;;;;;6.80;5.20;;;;;;;18.57;95.49;99919.64;105629;1255;74825;-65
2023/08/26 02:55:57;;;;;;;5.70;4.80;;;;;;;18.55;95.43;99923.98;105695;1256;83716;-65
2023/08/26 02:58:24;;;;;;;7.90;5.10;;;;;;;18.55;95.66;99918.52;105533;1257;74389;-64
2023/08/26 03:00:55;;;;;;;5.20;4.60;;;;;;;18.57;95.73;99917.69;105574;1254;69058;-65
2023/08/26 03:03:22;;;;;;;7.00;4.80;;;;;;;18.56;95.73;99916.48;105567;1257;69179;-64
2023/08/26 03:05:49;;;;;;;5.70;5.10;;;;;;;18.56;95.78;99915.61;105594;1257;74823;-65
2023/08/26 03:08:17;;;;;;;6.70;4.70;;;;;;;18.56;95.89;99911.58;105656;1255;83711;-64
2023/08/26 03:10:57;;;;;;;5.90;5.10;;;;;;;18.55;95.82;99915.39;105515;1256;72656;-64
2023/08/26 03:13:24;;;;;;;6.00;5.10;;;;;;;18.54;95.97;99920.23;105514;1257;69265;-64
2023/08/26 03:15:51;;;;;;;7.00;4.90;;;;;;;18.53;96.17;99921.49;105560;1256;69166;-65
2023/08/26 03:18:18;;;;;;;6.60;4.80;;;;;;;18.53;96.13;99923.82;105502;1254;75045;-64
2023/08/26 03:20:45;;;;;;;6.50;4.90;;;;;;;18.53;96.50;99926.66;105487;1257;83409;-66
2023/08/26 03:23:12;;;;;;;8.90;5.40;;;;;;;18.55;96.59;99930.60;105481;1257;72679;-64
2023/08/26 03:25:40;;;;;;;6.40;5.20;;;;;;;18.56;97.00;99933.99;105529;1254;69774;-66
2023/08/26 03:28:08;;;;;;;7.20;5.10;;;;;;;18.60;97.49;99931.79;105568;1256;69218;-65
2023/08/26 03:30:36;;;;;;;6.70;5.10;;;;;;;18.66;97.88;99933.41;105615;1254;73904;-65
2023/08/26 03:33:03;;;;;;;9.30;5.80;;;;;;;18.69;97.93;99932.30;105642;1256;82494;-66
2023/08/26 03:35:31;;;;;;;9.60;4.90;;;;;;;18.71;98.01;99935.66;105516;1257;73955;-65
2023/08/26 03:37:58;;;;;;;9.00;4.90;;;;;;;18.73;98.07;99933.73;105485;1254;69179;-65
2023/08/26 03:40:25;;;;;;;6.70;5.00;;;;;;;18.76;98.21;99937.64;105604;1257;69163;-65
2023/08/26 03:42:52;;;;;;;7.40;4.90;;;;;;;18.79;98.05;99944.86;105568;1256;73706;-65
2023/08/26 03:45:19;;;;;;;6.20;4.80;;;;;;;18.79;97.87;99943.75;105569;1257;83281;-66
2023/08/26 03:47:47;;;;;;;8.30;4.90;;;;;;;18.80;97.79;99942.65;105606;1254;74004;-65
2023/08/26 03:50:14;;;;;;;8.10;4.90;;;;;;;18.81;97.86;99942.40;105585;1257;69108;-65
2023/08/26 03:52:44;;;;;;;8.40;4.90;;;;;;;18.80;97.75;99938.34;105488;1255;69025;-65
2023/08/26 03:55:12;;;;;;;5.80;4.60;;;;;;;18.80;97.66;99941.25;105504;1254;74988;-65
2023/08/26 03:57:39;;;;;;;5.40;4.70;;;;;;;18.77;97.45;99935.09;105554;1256;82590;-65
2023/08/26 04:00:07;;;;;;;6.70;4.70;;;;;;;18.76;97.67;99935.30;105608;1254;72612;-65
2023/08/26 04:02:34;;;;;;;8.40;5.30;;;;;;;18.77;97.75;99938.61;105604;1257;69189;-66
2023/08/26 04:05:01;;;;;;;9.90;5.10;;;;;;;18.77;97.56;99938.48;105589;1256;69199;-66
2023/08/26 04:07:28;;;;;;;5.60;4.50;;;;;;;18.76;97.61;99932.88;105612;1256;74102;-66
2023/08/26 04:09:55;;;;;;;6.40;4.30;;;;;;;18.76;97.62;99931.98;105462;1256;83677;-66
2023/08/26 04:12:22;;;;;;;6.70;4.90;;;;;;;18.75;97.53;99940.20;105540;1254;73682;-66
2023/08/26 04:14:49;;;;;;;8.00;4.70;;;;;;;18.75;97.61;99943.71;105507;1257;69648;-66
2023/08/26 04:17:16;;;;;;;5.90;4.10;;;;;;;18.77;97.88;99944.27;105645;1256;69194;-66
2023/08/26 04:19:43;;;;;;;4.80;4.30;;;;;;;18.81;98.07;99948.16;105580;1256;73737;-66
2023/08/26 04:22:10;;;;;;;5.10;4.60;;;;;;;18.86;98.27;99949.08;105456;1257;83112;-65
2023/08/26 04:24:37;;;;;;;6.70;4.60;;;;;;;18.92;98.50;99941.70;105451;1256;72715;-66
2023/08/26 04:27:04;;;;;;;6.80;4.90;;;;;;;18.97;98.70;99940.20;105626;1257;69182;-65
2023/08/26 04:29:31;;;;;;;7.20;4.60;;;;;;;19.05;98.99;99944.23;105463;1257;69251;-66
2023/08/26 04:31:58;;;;;;;7.90;5.00;;;;;;;19.12;99.21;99951.26;105521;1256;73815;-66
2023/08/26 04:34:26;;;;;;;5.50;4.30;;;;;;;19.22;99.42;99950.65;105580;1256;83366;-66
2023/08/26 04:36:53;;;;;;;7.30;4.90;;;;;;;19.32;99.43;99942.35;105565;1256;73816;-66
2023/08/26 04:39:22;;;;;;;6.70;4.90;;;;;;;19.42;99.29;99939.11;105400;1254;69167;-66
2023/08/26 04:41:49;;;;;;;9.70;5.00;;;;;;;19.51;99.33;99936.58;105607;1256;69170;-66
2023/08/26 04:44:19;;;;;;;6.00;4.70;;;;;;;19.58;99.25;99936.14;105432;1261;73782;-65
2023/08/26 04:46:47;;;;;;;7.90;4.50;;;;;;;19.65;99.07;99940.76;105456;1259;83585;-65
2023/08/26 04:49:14;;;;;;;8.30;4.80;;;;;;;19.72;99.03;99942.67;105639;1255;72771;-65
2023/08/26 04:51:49;;;;;;;8.50;4.80;;;;;;;19.81;99.08;99950.46;105467;1256;69171;-66
2023/08/26 04:54:16;;;;;;;8.00;4.50;;;;;;;19.90;98.83;99953.05;105488;1255;70450;-65
2023/08/26 04:56:43;;;;;;;8.50;4.40;;;;;;;19.99;98.67;99950.04;105514;1255;74121;-65
2023/08/26 04:59:10;;;;;;;10.80;4.80;;;;;;;20.09;98.51;99947.98;105430;1257;83292;-66
2023/08/26 05:01:37;;;;;;;7.20;4.20;;;;;;;20.17;98.16;99945.13;105401;1257;73643;-66
2023/08/26 05:04:04;;;;;;;9.10;4.20;;;;;;;20.27;98.23;99946.80;105452;1257;69068;-65
2023/08/26 05:06:31;;;;;;;7.30;3.90;;;;;;;20.36;97.85;99950.85;105567;1257;69064;-67
2023/08/26 05:08:58;;;;;;;7.40;4.10;;;;;;;20.45;97.58;99948.41;105438;1254;74997;-63
2023/08/26 05:11:25;;;;;;;6.20;4.60;;;;;;;20.55;97.35;99949.01;105533;1255;81442;-66
2023/08/26 05:13:52;;;;;;;4.80;3.80;;;;;;;20.64;97.01;99952.20;105579;1257;73614;-65
2023/08/26 05:16:19;;;;;;;5.80;4.20;;;;;;;20.69;96.66;99957.55;105479;1257;68276;-63
2023/08/26 05:18:46;;;;;;;7.20;4.20;;;;;;;20.73;96.24;99963.63;105543;1257;69205;-63
2023/08/26 05:21:13;;;;;;;7.40;4.20;;;;;;;20.75;95.75;99969.91;105479;1257;72689;-63
2023/08/26 05:23:40;;;;;;;5.00;3.70;;;;;;;20.75;95.42;99969.88;107748;1256;83259;-61
2023/08/26 05:26:07;;;;;;;6.60;4.30;;;;;;;20.75;95.21;99970.41;105561;1257;73690;-62
2023/08/26 05:28:34;;;;;;;6.80;4.00;;;;;;;20.76;95.03;99968.52;105507;1256;69141;-61
2023/08/26 05:31:02;;;;;;;6.50;4.00;;;;;;;20.78;94.93;99974.36;105579;1257;69128;-61
2023/08/26 05:33:29;;;;;;;6.90;4.00;;;;;;;20.80;94.55;99981.69;105556;1257;74781;-62
2023/08/26 05:35:57;;;;;;;5.40;4.20;;;;;;;20.80;94.41;99985.91;105616;1254;82440;-64
2023/08/26 05:38:24;;;;;;;7.60;4.30;;;;;;;20.81;94.32;99993.11;105867;1257;73806;-61
2023/08/26 05:40:51;;;;;;;6.40;4.50;;;;;;;20.83;94.14;99993.14;105504;1258;69144;-61
2023/08/26 05:43:18;;;;;;;7.30;4.40;;;;;;;20.83;93.93;99997.39;105512;1257;69178;-62
2023/08/26 05:45:47;;;;;;;7.20;4.60;;;;;;;20.81;93.65;99996.86;105667;1253;74881;-62
2023/08/26 05:48:14;;;;;;;7.10;4.30;;;;;;;20.79;93.68;99997.73;105513;1254;83354;-62
2023/08/26 05:50:41;;;;;;;6.50;4.40;;;;;;;20.79;93.71;99999.20;105663;1257;73670;-62
2023/08/26 05:53:09;;;;;;;7.60;4.40;;;;;;;20.79;93.65;100001.13;105709;1255;69067;-62
2023/08/26 05:55:36;;;;;;;10.20;4.70;;;;;;;20.81;93.70;100007.39;105583;1266;69182;-62
2023/08/26 05:58:03;;;;;;;13.30;5.40;;;;;;;20.82;93.84;100015.79;105578;1257;74775;-62
2023/08/26 06:00:30;;;;;;;8.10;5.00;;;;;;;20.83;93.67;100023.36;105850;1257;83298;-63
2023/08/26 06:02:57;;;;;;;8.50;5.20;;;;;;;20.81;93.61;100023.84;105614;1257;73020;-62
2023/08/26 06:05:25;;;;;;;8.50;5.00;;;;;;;20.81;93.67;100022.81;105623;1257;69085;-62
2023/08/26 06:07:52;;;;;;;6.40;4.80;;;;;;;20.81;93.65;100025.46;105612;1257;69292;-62
2023/08/26 06:10:21;;;;;;;6.90;4.80;;;;;;;20.79;93.50;100028.30;105737;1256;73228;-62
2023/08/26 06:12:49;;;;;;;9.40;4.90;;;;;;;20.76;93.50;100032.61;105872;1256;82504;-62
2023/08/26 06:15:16;;;;;;;7.40;4.80;;;;;;;20.74;93.70;100027.96;105638;1256;72833;-62
2023/08/26 06:17:43;;;;;;;6.50;4.70;;;;;;;20.76;93.85;100034.95;105879;1255;69294;-62
2023/08/26 06:20:12;;;;;;;6.80;4.50;;;;;;;20.76;94.00;100029.27;105603;1266;69330;-62
2023/08/26 06:22:45;;;;;;;7.60;4.90;;;;;;;20.80;94.03;100037.67;105711;1257;75011;-62
2023/08/26 06:25:12;;;;;;;6.50;4.60;;;;;;;20.82;94.07;100040.44;105607;1257;83614;-62
2023/08/26 06:27:39;;;;;;;6.00;4.20;;;;;;;20.84;93.89;100045.23;105566;1257;72640;-63
2023/08/26 06:30:06;;;;;;;9.00;5.00;;;;;;;20.88;93.93;100047.91;105721;1256;69118;-63
2023/08/26 06:32:34;;;;;;;8.60;5.30;;;;;;;20.95;94.00;100051.39;105815;1256;69114;-62
2023/08/26 06:35:04;;;;;;;7.10;4.70;;;;;;;21.02;94.03;100046.57;105747;1254;74857;-62
2023/08/26 06:37:30;;;;;;;8.00;5.10;;;;;;;21.09;93.97;100052.67;105803;1257;83358;-62
2023/08/26 06:39:57;;;;;;;11.70;5.30;;;;;;;21.17;93.99;100055.35;105657;1266;73859;-61
2023/08/26 06:42:25;;;;;;;6.10;4.70;;;;;;;21.25;93.88;100061.48;105494;1258;69191;-62
2023/08/26 06:44:54;;;;;;;8.30;4.70;;;;;;;21.31;93.74;100062.11;105520;1253;69137;-61
2023/08/26 06:47:21;;;;;;;6.00;4.70;;;;;;;21.39;93.76;100063.79;105559;1266;74113;-62
2023/08/26 06:49:49;;;;;;;7.10;4.40;;;;;;;21.50;93.77;100069.45;105881;1256;82345;-62
2023/08/26 06:52:15;;;;;;;7.40;4.30;;;;;;;21.59;93.63;100072.71;105538;1254;73657;-62
2023/08/26 06:54:42;;;;;;;9.60;4.70;;;;;;;21.68;93.42;100074.45;105550;1257;69112;-63
2023/08/26 06:57:09;;;;;;;7.10;4.40;;;;;;;21.75;93.37;100081.77;105457;1264;69158;-63
2023/08/26 06:59:36;;;;;;;7.50;4.40;;;;;;;21.82;93.23;100086.98;105556;1257;74678;-62
2023/08/26 07:02:05;;;;;;;6.60;4.90;;;;;;;21.88;93.07;100088.83;105656;1257;83557;-61
2023/08/26 07:04:32;;;;;;;7.20;4.60;;;;;;;21.90;92.78;100090.23;105670;1256;73742;-59
2023/08/26 07:06:59;;;;;;;8.10;4.60;;;;;;;21.92;92.48;100098.06;105606;1257;69116;-59
2023/08/26 07:09:26;;;;;;;7.80;4.80;;;;;;;21.94;92.59;100100.73;105640;1256;69154;-60
2023/08/26 07:11:53;;;;;;;8.10;4.50;;;;;;;21.96;92.46;100103.23;105649;1257;74109;-59
2023/08/26 07:14:20;;;;;;;7.20;4.90;;;;;;;21.96;92.30;100112.66;105624;1255;83322;-61
2023/08/26 07:16:48;;;;;;;7.20;5.80;;;;;;;21.95;92.40;100111.81;105634;1257;72665;-62
2023/08/26 07:19:15;;;;;;;6.10;5.10;;;;;;;22.01;92.35;100118.10;105734;1254;69162;-61
2023/08/26 07:21:41;;;;;;;9.00;5.30;;;;;;;22.04;92.25;100117.80;105652;1254;69189;-62
2023/08/26 07:24:09;;;;;;;6.60;4.60;;;;;;;22.10;92.55;100114.23;105670;1254;73729;-62
2023/08/26 07:26:36;;;;;;;6.70;4.80;;;;;;;22.15;92.51;100121.67;105668;1257;82371;-61
2023/08/26 07:29:03;;;;;;;8.40;5.20;;;;;;;22.15;92.60;100119.45;105816;1255;72693;-61
2023/08/26 07:31:31;;;;;;;6.70;4.50;;;;;;;22.15;92.33;100128.17;105603;1257;69195;-62
2023/08/26 07:33:58;;;;;;;6.10;4.90;;;;;;;22.14;92.54;100128.52;105607;1257;69051;-62
2023/08/26 07:36:25;;;;;;;7.10;4.40;;;;;;;22.09;92.37;100131.73;105630;1254;74906;-62
2023/08/26 07:38:52;;;;;;;8.30;5.00;;;;;;;22.05;92.50;100130.89;105694;1257;83547;-59
2023/08/26 07:41:19;;;;;;;8.00;4.40;;;;;;;22.02;92.37;100126.83;105635;1252;73656;-60
2023/08/26 07:43:46;;;;;;;8.20;4.50;;;;;;;22.01;92.46;100128.35;105644;1254;70031;-60
2023/08/26 07:46:14;;;;;;;8.00;4.60;;;;;;;22.02;92.50;100125.05;105629;1254;70708;-61
2023/08/26 07:48:45;;;;;;;6.30;4.40;;;;;;;22.04;92.51;100122.43;105316;1258;74866;-63
2023/08/26 07:51:12;;;;;;;7.70;4.60;;;;;;;22.06;92.32;100123.67;105258;1261;83307;-63
2023/08/26 07:53:39;;;;;;;7.20;4.30;;;;;;;22.09;92.45;100129.48;105183;1261;73691;-63
2023/08/26 07:56:07;;;;;;;7.70;4.00;;;;;;;22.13;92.22;100133.35;105173;1261;233193;-63
2023/08/26 07:58:34;;;;;;;7.20;3.80;;;;;;;22.15;92.18;100136.42;105271;1257;69173;-63
2023/08/26 08:01:02;;;;;;;5.60;3.90;;;;;;;22.16;92.07;100136.47;105241;1257;73685;-63
2023/08/26 08:03:29;;;;;;;6.30;3.90;;;;;;;22.19;92.02;100135.91;105199;1261;83402;-63
2023/08/26 08:05:56;;;;;;;5.30;3.70;;;;;;;22.25;92.02;100137.11;105226;1260;74179;-64
2023/08/26 08:08:24;;;;;;;4.20;3.70;;;;;;;22.32;92.21;100135.06;105600;1257;69196;-64
2023/08/26 08:10:51;;;;;;;6.70;4.50;;;;;;;22.39;92.20;100131.80;105746;1257;69144;-64
2023/08/26 08:13:18;;;;;;;6.90;4.20;;;;;;;22.46;92.21;100130.08;105649;1254;73672;-61
2023/08/26 08:15:45;;;;;;;4.00;3.40;;;;;;;22.51;92.12;100125.30;105626;1254;82712;-63
2023/08/26 08:18:12;;;;;;;5.40;3.90;;;;;;;22.53;91.83;100117.52;105667;1258;73861;-63
2023/08/26 08:20:39;;;;;;;4.40;3.60;;;;;;;22.54;91.66;100119.36;105590;1251;69207;-64
2023/08/26 08:23:06;;;;;;;5.20;3.50;;;;;;;22.56;91.68;100121.80;105631;1257;69192;-63
2023/08/26 08:25:33;;;;;;;5.50;3.60;;;;;;;22.58;91.09;100136.63;105793;1255;73839;-63
2023/08/26 08:28:01;;;;;;;4.60;3.50;;;;;;;22.58;90.98;100133.92;105567;1256;83289;-64
2023/08/26 08:30:28;;;;;;;6.50;3.90;;;;;;;22.64;91.02;100131.09;105770;1254;72584;-63
2023/08/26 08:32:55;;;;;;;5.00;3.50;;;;;;;22.61;90.46;100137.74;105756;1257;69179;-63
2023/08/26 08:35:23;;;;;;;4.80;3.50;;;;;;;22.57;90.33;100136.68;105664;1257;69210;-62
2023/08/26 08:37:50;;;;;;;6.10;3.70;;;;;;;22.56;90.40;100135.73;105810;1257;74783;-63
2023/08/26 08:40:17;;;;;;;8.80;4.30;;;;;;;22.58;90.51;100136.83;105620;1254;82465;-63
2023/08/26 08:42:44;;;;;;;6.20;4.40;;;;;;;22.59;90.67;100136.73;105714;1252;73584;-64
2023/08/26 08:45:12;;;;;;;9.50;4.10;;;;;;;22.58;90.56;100134.09;105547;1254;69195;-64
2023/08/26 08:47:41;;;;;;;9.50;3.90;;;;;;;22.53;90.13;100125.55;105819;1257;69205;-64
2023/08/26 08:50:08;;;;;;;5.30;3.90;;;;;;;22.44;90.23;100121.84;105834;1256;73812;-62
2023/08/26 08:52:35;;;;;;;4.60;3.70;;;;;;;22.39;90.28;100112.58;105772;1254;83527;-63
2023/08/26 08:55:05;;;;;;;6.10;4.00;;;;;;;22.39;90.62;100099.77;105721;1253;71614;-64
2023/08/26 08:57:34;;;;;;;8.10;4.60;;;;;;;22.44;91.13;100099.56;105790;1257;69275;-65
2023/08/26 09:00:03;;;;;;;6.40;4.10;;;;;;;22.49;91.07;100088.30;105733;1264;69028;-65
2023/08/26 09:02:30;;;;;;;6.70;4.10;;;;;;;22.57;91.23;100079.59;105791;1254;74673;-65
2023/08/26 09:04:58;;;;;;;9.10;4.00;;;;;;;22.69;91.69;100068.88;105556;1257;83154;-64
2023/08/26 09:07:26;;;;;;;6.90;4.20;;;;;;;22.82;91.54;100069.53;105522;1257;72805;-64
2023/08/26 09:09:54;;;;;;;7.20;4.40;;;;;;;22.94;91.78;100058.83;105793;1257;69112;-64
2023/08/26 09:12:29;;;;;;;6.40;4.30;;;;;;;23.03;91.52;100049.31;105542;1257;69197;-64
2023/08/26 09:14:56;;;;;;;4.90;4.00;;;;;;;23.12;91.50;100046.09;105777;1257;73878;-65
2023/08/26 09:17:23;;;;;;;6.60;3.90;;;;;;;23.20;91.32;100052.81;105578;1254;82351;-65
2023/08/26 09:19:53;;;;;;;7.50;4.30;;;;;;;23.32;91.31;100068.23;105778;1254;73871;-64
2023/08/26 09:22:23;;;;;;;;;;;;;;;23.51;91.29;100077.46;105754;1254;69173;-62
2023/08/26 09:24:54;;;;;;;9.40;4.50;;;;;;;23.70;91.15;100084.73;105588;1255;69191;-63
2023/08/26 09:27:21;;;;;;;6.90;4.00;;;;;;;23.81;90.55;100096.89;105711;1255;74613;-62
2023/08/26 09:29:49;;;;;;;5.20;3.50;;;;;;;23.88;89.87;100086.45;105603;1257;81465;-63
2023/08/26 09:32:30;;;;;;;5.20;3.50;;;;;;;24.01;89.74;100084.94;105660;1262;71621;-63
2023/08/26 09:35:13;;;;;;;5.10;3.60;;;;;;;24.08;88.70;100084.30;105741;1256;69318;-62
2023/08/26 09:38:02;;;;;;;7.10;3.80;;;;;;;24.15;88.01;100082.86;105662;1254;69375;-64
2023/08/26 09:40:29;;;;;;;5.50;4.00;;;;;;;24.37;88.45;100072.80;105569;1254;74872;-63
2023/08/26 09:42:56;;;;;;;3.90;3.00;;;;;;;24.58;87.67;100072.84;105667;1257;83349;-63
2023/08/26 09:45:23;;;;;;;4.00;3.30;;;;;;;24.74;86.81;100074.44;105637;1253;73619;-63
2023/08/26 09:47:51;;;;;;;4.70;3.60;;;;;;;24.83;85.84;100068.05;105551;1257;69176;-63
2023/08/26 09:50:29;;;;;;;5.40;3.70;;;;;;;24.89;85.51;100067.42;105592;1256;69176;-63
2023/08/26 09:52:56;;;;;;;3.80;3.10;;;;;;;24.99;85.13;100071.17;105515;1254;73885;-63
2023/08/26 09:55:23;;;;;;;6.40;3.30;;;;;;;25.07;84.74;100073.02;105546;1257;83480;-63
2023/08/26 09:57:52;;;;;;;5.50;3.60;;;;;;;25.34;85.13;100066.20;105492;1254;74038;-63
2023/08/26 10:00:20;;;;;;;;;;;;;;;25.67;84.40;100071.27;105712;1257;69435;-63
2023/08/26 10:02:51;;;;;;;6.80;3.60;;;;;;;25.90;83.28;100069.59;105676;1257;69493;-63
2023/08/26 10:05:21;;;;;;;4.90;3.20;;;;;;;26.08;82.47;100066.42;105604;1254;74766;-63
2023/08/26 10:07:52;;;;;;;5.80;3.90;;;;;;;26.32;82.05;100066.64;105678;1254;84410;-63
2023/08/26 10:10:31;;;;;;;4.70;3.60;;;;;;;26.57;81.21;100065.75;105605;1254;72619;-62
2023/08/26 10:13:03;;;;;;;3.60;3.30;;;;;;;26.83;80.42;100060.92;105510;1254;70009;-63
2023/08/26 10:15:33;;;;;;;4.90;3.60;;;;;;;27.14;79.49;100054.98;105821;1254;69204;-63
2023/08/26 10:18:15;;;;;;;7.80;3.20;;;;;;;27.42;78.49;100055.40;105665;1255;74029;-63
2023/08/26 10:20:44;;;;;;;5.20;3.30;;;;;;;27.65;77.04;100053.02;105618;1254;81919;-62
2023/08/26 10:23:12;;;;;;;5.00;3.00;;;;;;;27.88;75.91;100057.55;105751;1256;73511;-65
2023/08/26 10:25:39;;;;;;;4.10;2.80;;;;;;;27.95;74.51;100054.67;105707;1254;69076;-66
2023/08/26 10:28:06;;;;;;;3.60;3.10;;;;;;;28.00;73.36;100059.66;105603;1257;69291;-65
2023/08/26 10:30:33;;;;;;;5.10;2.70;;;;;;;27.99;72.32;100058.16;105552;1254;73556;-66
2023/08/26 10:33:01;;;;;;;3.60;2.90;;;;;;;27.98;71.54;100055.23;105659;1254;81579;-66
2023/08/26 10:35:29;;;;;;;4.00;2.60;;;;;;;27.99;70.77;100057.70;105618;1254;73444;-65
2023/08/26 10:38:12;;;;;;;4.00;2.50;;;;;;;27.95;69.36;100065.37;105660;1251;69243;-66
2023/08/26 10:40:39;;;;;;;3.20;2.70;;;;;;;27.89;69.29;100062.73;105695;1254;69179;-65
2023/08/26 10:43:09;;;;;;;3.90;2.80;;;;;;;27.85;68.59;100045.48;105648;1256;74581;-65
2023/08/26 10:45:50;;;;;;;5.00;2.80;;;;;;;27.79;68.07;100041.61;105752;1254;83323;-65
2023/08/26 10:48:18;;;;;;;3.30;2.70;;;;;;;27.86;68.25;100048.05;105692;1254;73868;-66
2023/08/26 10:50:59;;;;;;;3.50;2.40;;;;;;;28.01;68.02;100050.41;105574;1257;69529;-66
2023/08/26 10:53:26;;;;;;;3.10;2.50;;;;;;;28.14;67.60;100050.84;105626;1257;69143;-66
2023/08/26 10:56:11;;;;;;;3.80;2.50;;;;;;;28.21;67.45;100053.88;105688;1254;73947;-66
2023/08/26 10:58:43;;;;;;;3.70;2.40;;;;;;;28.28;66.79;100054.49;105610;1254;82379;-66
2023/08/26 11:01:11;;;;;;;2.40;2.20;;;;;;;28.38;66.29;100051.72;105589;1254;73819;-65
2023/08/26 11:03:38;;;;;;;3.00;2.50;;;;;;;28.36;65.41;100042.54;105664;1252;69129;-65
2023/08/26 11:06:08;;;;;;;3.80;2.20;;;;;;;28.40;64.96;100031.52;105698;1257;69220;-65
2023/08/26 11:08:37;;;;;;;3.70;2.50;;;;;;;28.48;64.50;100020.70;105795;1254;73853;-65
2023/08/26 11:11:05;;;;;;;2.60;2.20;;;;;;;28.54;64.05;100029.50;105780;1254;82760;-65
2023/08/26 11:13:32;;;;;;;3.20;2.20;;;;;;;28.44;63.41;100026.66;105724;1253;73885;-65
2023/08/26 11:15:59;;;;;;;2.60;2.20;;;;;;;28.46;63.22;100029.38;105650;1254;69077;-65
2023/08/26 11:18:26;;;;;;;3.40;2.40;;;;;;;28.69;63.05;100030.11;105753;1256;69613;-65
2023/08/26 11:20:53;;;;;;;4.40;2.40;;;;;;;28.91;62.98;100035.69;105655;1256;72992;-62
2023/08/26 11:23:22;;;;;;;5.80;2.60;;;;;;;29.08;62.48;100038.08;105635;1254;83253;-65
2023/08/26 11:25:49;;;;;;;3.60;2.20;;;;;;;29.22;61.97;100038.95;105605;1257;74419;-65